sensor_id;sensor_type;location;lat;lon;timestamp;temperature;humidity
9820;DHT22;4949;48.482;9.206;2023-04-19T00:03:46;11.80;72.70
9820;DHT22;4949;48.482;9.206;2023-04-19T00:08:46;12.00;73.80
9820;DHT22;4949;48.482;9.206;2023-04-19T00:13:47;11.90;74.20
9820;DHT22;4949;48.482;9.206;2023-04-19T00:18:48;11.70;73.60
9820;DHT22;4949;48.482;9.206;2023-04-19T00:23:49;11.70;73.80
9820;DHT22;4949;48.482;9.206;2023-04-19T00:28:50;11.70;73.80
9820;DHT22;4949;48.482;9.206;2023-04-19T00:33:51;11.90;74.00
9820;DHT22;4949;48.482;9.206;2023-04-19T00:38:52;11.70;74.50
9820;DHT22;4949;48.482;9.206;2023-04-19T00:43:53;11.60;74.50
9820;DHT22;4949;48.482;9.206;2023-04-19T00:48:53;11.60;74.50
9820;DHT22;4949;48.482;9.206;2023-04-19T00:53:55;11.60;74.50
9820;DHT22;4949;48.482;9.206;2023-04-19T00:58:57;11.50;74.40
9820;DHT22;4949;48.482;9.206;2023-04-19T01:04:00;11.50;74.20
9820;DHT22;4949;48.482;9.206;2023-04-19T01:09:01;11.50;74.60
9820;DHT22;4949;48.482;9.206;2023-04-19T01:14:02;11.50;74.70
9820;DHT22;4949;48.482;9.206;2023-04-19T01:19:02;11.40;74.30
9820;DHT22;4949;48.482;9.206;2023-04-19T01:24:03;11.40;75.00
9820;DHT22;4949;48.482;9.206;2023-04-19T01:29:04;11.30;74.90
9820;DHT22;4949;48.482;9.206;2023-04-19T01:34:05;11.30;75.30
9820;DHT22;4949;48.482;9.206;2023-04-19T01:39:06;11.30;75.00
9820;DHT22;4949;48.482;9.206;2023-04-19T01:44:06;11.20;75.40
9820;DHT22;4949;48.482;9.206;2023-04-19T01:49:10;11.20;75.50
9820;DHT22;4949;48.482;9.206;2023-04-19T01:54:10;11.10;75.90
9820;DHT22;4949;48.482;9.206;2023-04-19T01:59:11;11.10;76.10
9820;DHT22;4949;48.482;9.206;2023-04-19T02:04:12;11.10;76.20
9820;DHT22;4949;48.482;9.206;2023-04-19T02:09:13;11.10;75.70
9820;DHT22;4949;48.482;9.206;2023-04-19T02:14:13;11.10;75.40
9820;DHT22;4949;48.482;9.206;2023-04-19T02:19:19;11.10;75.40
9820;DHT22;4949;48.482;9.206;2023-04-19T02:24:20;11.00;75.90
9820;DHT22;4949;48.482;9.206;2023-04-19T02:29:21;11.00;76.10
9820;DHT22;4949;48.482;9.206;2023-04-19T02:34:21;11.00;76.30
9820;DHT22;4949;48.482;9.206;2023-04-19T02:39:23;10.90;76.50
9820;DHT22;4949;48.482;9.206;2023-04-19T02:44:27;11.00;75.80
9820;DHT22;4949;48.482;9.206;2023-04-19T02:49:29;10.80;76.40
9820;DHT22;4949;48.482;9.206;2023-04-19T02:54:36;10.80;76.70
9820;DHT22;4949;48.482;9.206;2023-04-19T02:59:36;10.70;77.60
9820;DHT22;4949;48.482;9.206;2023-04-19T03:04:37;10.70;76.90
9820;DHT22;4949;48.482;9.206;2023-04-19T03:09:38;10.70;76.90
9820;DHT22;4949;48.482;9.206;2023-04-19T03:14:41;10.80;77.20
9820;DHT22;4949;48.482;9.206;2023-04-19T03:19:44;10.70;77.00
9820;DHT22;4949;48.482;9.206;2023-04-19T03:24:45;10.70;77.10
9820;DHT22;4949;48.482;9.206;2023-04-19T03:29:46;10.70;76.80
9820;DHT22;4949;48.482;9.206;2023-04-19T03:34:47;10.80;76.90
9820;DHT22;4949;48.482;9.206;2023-04-19T03:39:47;10.80;77.00
9820;DHT22;4949;48.482;9.206;2023-04-19T03:44:48;10.70;77.10
9820;DHT22;4949;48.482;9.206;2023-04-19T03:49:49;10.70;77.10
9820;DHT22;4949;48.482;9.206;2023-04-19T03:54:50;10.80;77.50
9820;DHT22;4949;48.482;9.206;2023-04-19T03:59:51;10.70;77.60
9820;DHT22;4949;48.482;9.206;2023-04-19T04:04:54;10.70;77.40
9820;DHT22;4949;48.482;9.206;2023-04-19T04:09:57;10.70;77.40
9820;DHT22;4949;48.482;9.206;2023-04-19T04:15:01;10.70;77.50
9820;DHT22;4949;48.482;9.206;2023-04-19T04:20:02;10.70;77.30
9820;DHT22;4949;48.482;9.206;2023-04-19T04:25:05;10.70;77.50
9820;DHT22;4949;48.482;9.206;2023-04-19T04:30:07;10.60;77.70
9820;DHT22;4949;48.482;9.206;2023-04-19T04:35:08;10.60;77.90
9820;DHT22;4949;48.482;9.206;2023-04-19T04:40:14;10.50;78.00
9820;DHT22;4949;48.482;9.206;2023-04-19T04:45:15;10.50;78.60
9820;DHT22;4949;48.482;9.206;2023-04-19T04:50:18;10.50;78.40
9820;DHT22;4949;48.482;9.206;2023-04-19T04:55:21;10.50;78.30
9820;DHT22;4949;48.482;9.206;2023-04-19T05:00:25;10.50;78.20
9820;DHT22;4949;48.482;9.206;2023-04-19T05:05:26;10.50;78.40
9820;DHT22;4949;48.482;9.206;2023-04-19T05:10:29;10.40;78.70
9820;DHT22;4949;48.482;9.206;2023-04-19T05:15:32;10.40;78.70
9820;DHT22;4949;48.482;9.206;2023-04-19T05:20:35;10.50;78.50
9820;DHT22;4949;48.482;9.206;2023-04-19T05:25:36;10.50;78.30
9820;DHT22;4949;48.482;9.206;2023-04-19T05:30:37;10.50;78.00
9820;DHT22;4949;48.482;9.206;2023-04-19T05:35:40;10.60;78.00
9820;DHT22;4949;48.482;9.206;2023-04-19T05:40:43;10.50;77.70
9820;DHT22;4949;48.482;9.206;2023-04-19T05:45:46;10.50;77.40
9820;DHT22;4949;48.482;9.206;2023-04-19T05:50:47;10.60;78.00
9820;DHT22;4949;48.482;9.206;2023-04-19T05:55:48;10.50;77.50
9820;DHT22;4949;48.482;9.206;2023-04-19T06:00:53;10.60;77.20
9820;DHT22;4949;48.482;9.206;2023-04-19T06:05:59;10.70;77.70
9820;DHT22;4949;48.482;9.206;2023-04-19T06:11:00;10.50;77.70
9820;DHT22;4949;48.482;9.206;2023-04-19T06:16:01;10.70;77.70
9820;DHT22;4949;48.482;9.206;2023-04-19T06:21:03;10.60;77.40
9820;DHT22;4949;48.482;9.206;2023-04-19T06:26:03;10.60;76.90
9820;DHT22;4949;48.482;9.206;2023-04-19T06:31:04;10.60;76.70
9820;DHT22;4949;48.482;9.206;2023-04-19T06:36:05;11.00;76.70
9820;DHT22;4949;48.482;9.206;2023-04-19T06:41:06;10.70;76.60
9820;DHT22;4949;48.482;9.206;2023-04-19T06:46:08;10.80;76.10
9820;DHT22;4949;48.482;9.206;2023-04-19T06:51:09;10.80;76.00
9820;DHT22;4949;48.482;9.206;2023-04-19T06:56:10;10.80;76.20
9820;DHT22;4949;48.482;9.206;2023-04-19T07:01:12;10.80;76.30
9820;DHT22;4949;48.482;9.206;2023-04-19T07:06:13;10.80;76.10
9820;DHT22;4949;48.482;9.206;2023-04-19T07:11:18;10.80;76.40
9820;DHT22;4949;48.482;9.206;2023-04-19T07:16:19;10.90;76.20
9820;DHT22;4949;48.482;9.206;2023-04-19T07:21:20;10.90;75.50
9820;DHT22;4949;48.482;9.206;2023-04-19T07:26:21;11.00;75.10
9820;DHT22;4949;48.482;9.206;2023-04-19T07:31:22;11.00;75.40
9820;DHT22;4949;48.482;9.206;2023-04-19T07:36:24;10.90;75.60
9820;DHT22;4949;48.482;9.206;2023-04-19T07:41:27;11.00;75.80
9820;DHT22;4949;48.482;9.206;2023-04-19T07:46:28;11.00;75.90
9820;DHT22;4949;48.482;9.206;2023-04-19T07:51:29;11.00;75.30
9820;DHT22;4949;48.482;9.206;2023-04-19T07:56:31;11.10;75.00
9820;DHT22;4949;48.482;9.206;2023-04-19T08:01:32;11.10;75.10
9820;DHT22;4949;48.482;9.206;2023-04-19T08:06:35;11.20;75.60
9820;DHT22;4949;48.482;9.206;2023-04-19T08:11:37;11.20;75.70
9820;DHT22;4949;48.482;9.206;2023-04-19T08:16:38;11.10;75.40
9820;DHT22;4949;48.482;9.206;2023-04-19T08:21:41;11.20;75.20
9820;DHT22;4949;48.482;9.206;2023-04-19T08:26:41;11.40;74.20
9820;DHT22;4949;48.482;9.206;2023-04-19T08:31:45;11.50;74.00
9820;DHT22;4949;48.482;9.206;2023-04-19T08:36:46;11.60;73.10
9820;DHT22;4949;48.482;9.206;2023-04-19T08:41:48;11.70;72.50
9820;DHT22;4949;48.482;9.206;2023-04-19T08:46:49;11.70;71.80
9820;DHT22;4949;48.482;9.206;2023-04-19T08:51:52;11.90;71.10
9820;DHT22;4949;48.482;9.206;2023-04-19T08:56:55;11.90;70.90
9820;DHT22;4949;48.482;9.206;2023-04-19T09:02:00;12.10;70.60
9820;DHT22;4949;48.482;9.206;2023-04-19T09:07:01;12.20;69.60
9820;DHT22;4949;48.482;9.206;2023-04-19T09:12:02;12.20;68.70
9820;DHT22;4949;48.482;9.206;2023-04-19T09:17:12;12.40;69.00
9820;DHT22;4949;48.482;9.206;2023-04-19T09:22:16;12.50;68.00
9820;DHT22;4949;48.482;9.206;2023-04-19T09:32:43;12.70;67.30
9820;DHT22;4949;48.482;9.206;2023-04-19T09:37:59;12.80;66.90
9820;DHT22;4949;48.482;9.206;2023-04-19T09:43:04;12.90;65.70
9820;DHT22;4949;48.482;9.206;2023-04-19T09:48:06;13.10;64.80
9820;DHT22;4949;48.482;9.206;2023-04-19T09:53:07;13.10;65.00
9820;DHT22;4949;48.482;9.206;2023-04-19T09:58:09;13.10;65.20
9820;DHT22;4949;48.482;9.206;2023-04-19T10:03:11;13.20;65.60
9820;DHT22;4949;48.482;9.206;2023-04-19T10:08:14;13.30;65.00
9820;DHT22;4949;48.482;9.206;2023-04-19T10:13:17;13.40;64.60
9820;DHT22;4949;48.482;9.206;2023-04-19T10:18:23;13.40;64.80
9820;DHT22;4949;48.482;9.206;2023-04-19T10:23:27;13.40;64.90
9820;DHT22;4949;48.482;9.206;2023-04-19T10:28:30;13.40;64.40
9820;DHT22;4949;48.482;9.206;2023-04-19T10:33:35;13.50;64.10
9820;DHT22;4949;48.482;9.206;2023-04-19T10:38:37;13.60;64.10
9820;DHT22;4949;48.482;9.206;2023-04-19T10:49:01;13.70;63.70
9820;DHT22;4949;48.482;9.206;2023-04-19T10:54:03;13.60;64.00
9820;DHT22;4949;48.482;9.206;2023-04-19T10:59:12;13.60;64.30
9820;DHT22;4949;48.482;9.206;2023-04-19T11:04:57;13.60;63.50
9820;DHT22;4949;48.482;9.206;2023-04-19T11:09:45;13.60;63.00
9820;DHT22;4949;48.482;9.206;2023-04-19T11:14:51;13.70;63.10
9820;DHT22;4949;48.482;9.206;2023-04-19T11:20:00;13.60;63.20
9820;DHT22;4949;48.482;9.206;2023-04-19T11:25:11;13.60;63.20
9820;DHT22;4949;48.482;9.206;2023-04-19T11:30:22;13.70;62.50
9820;DHT22;4949;48.482;9.206;2023-04-19T11:35:29;13.80;61.90
9820;DHT22;4949;48.482;9.206;2023-04-19T11:40:34;14.00;61.40
9820;DHT22;4949;48.482;9.206;2023-04-19T11:45:37;14.20;60.60
9820;DHT22;4949;48.482;9.206;2023-04-19T11:50:40;14.30;60.00
9820;DHT22;4949;48.482;9.206;2023-04-19T11:56:03;14.50;59.20
9820;DHT22;4949;48.482;9.206;2023-04-19T12:01:08;14.50;59.90
9820;DHT22;4949;48.482;9.206;2023-04-19T12:06:18;14.60;59.50
9820;DHT22;4949;48.482;9.206;2023-04-19T12:11:27;14.70;59.30
9820;DHT22;4949;48.482;9.206;2023-04-19T12:16:42;14.70;59.20
9820;DHT22;4949;48.482;9.206;2023-04-19T12:21:45;14.70;58.90
9820;DHT22;4949;48.482;9.206;2023-04-19T12:26:56;14.70;58.50
9820;DHT22;4949;48.482;9.206;2023-04-19T12:31:57;14.70;58.80
9820;DHT22;4949;48.482;9.206;2023-04-19T12:36:58;14.70;58.70
9820;DHT22;4949;48.482;9.206;2023-04-19T12:42:00;14.70;59.20
9820;DHT22;4949;48.482;9.206;2023-04-19T12:47:05;14.70;59.20
9820;DHT22;4949;48.482;9.206;2023-04-19T12:52:11;14.70;59.00
9820;DHT22;4949;48.482;9.206;2023-04-19T12:57:11;14.70;59.20
9820;DHT22;4949;48.482;9.206;2023-04-19T13:02:12;14.50;60.10
9820;DHT22;4949;48.482;9.206;2023-04-19T13:07:13;14.50;60.80
9820;DHT22;4949;48.482;9.206;2023-04-19T13:12:14;14.30;61.10
9820;DHT22;4949;48.482;9.206;2023-04-19T13:17:14;14.20;61.60
9820;DHT22;4949;48.482;9.206;2023-04-19T13:22:15;14.10;61.90
9820;DHT22;4949;48.482;9.206;2023-04-19T13:27:16;13.90;63.30
9820;DHT22;4949;48.482;9.206;2023-04-19T13:32:17;13.80;64.50
9820;DHT22;4949;48.482;9.206;2023-04-19T13:37:17;13.70;65.30
9820;DHT22;4949;48.482;9.206;2023-04-19T13:42:18;13.60;66.70
9820;DHT22;4949;48.482;9.206;2023-04-19T13:47:19;13.50;67.50
9820;DHT22;4949;48.482;9.206;2023-04-19T13:52:20;13.30;68.30
9820;DHT22;4949;48.482;9.206;2023-04-19T13:57:24;13.30;68.60
9820;DHT22;4949;48.482;9.206;2023-04-19T14:02:25;13.10;71.20
9820;DHT22;4949;48.482;9.206;2023-04-19T14:07:26;13.00;72.70
9820;DHT22;4949;48.482;9.206;2023-04-19T14:12:32;12.80;73.80
9820;DHT22;4949;48.482;9.206;2023-04-19T14:17:33;12.70;75.30
9820;DHT22;4949;48.482;9.206;2023-04-19T14:22:35;12.60;76.10
9820;DHT22;4949;48.482;9.206;2023-04-19T14:27:36;12.40;77.00
9820;DHT22;4949;48.482;9.206;2023-04-19T14:32:39;12.40;77.40
9820;DHT22;4949;48.482;9.206;2023-04-19T14:37:45;12.10;78.00
9820;DHT22;4949;48.482;9.206;2023-04-19T14:42:46;12.10;77.10
9820;DHT22;4949;48.482;9.206;2023-04-19T14:47:49;12.10;76.80
9820;DHT22;4949;48.482;9.206;2023-04-19T14:52:49;11.90;77.40
9820;DHT22;4949;48.482;9.206;2023-04-19T14:57:50;11.70;76.80
9820;DHT22;4949;48.482;9.206;2023-04-19T15:02:51;11.70;75.80
9820;DHT22;4949;48.482;9.206;2023-04-19T15:07:52;11.70;75.00
9820;DHT22;4949;48.482;9.206;2023-04-19T15:12:58;11.70;75.70
9820;DHT22;4949;48.482;9.206;2023-04-19T15:17:59;11.40;76.30
9820;DHT22;4949;48.482;9.206;2023-04-19T15:22:59;11.30;76.40
9820;DHT22;4949;48.482;9.206;2023-04-19T15:28:00;11.30;74.30
9820;DHT22;4949;48.482;9.206;2023-04-19T15:33:01;11.10;75.10
9820;DHT22;4949;48.482;9.206;2023-04-19T15:38:01;11.10;75.10
9820;DHT22;4949;48.482;9.206;2023-04-19T15:43:03;11.10;78.20
9820;DHT22;4949;48.482;9.206;2023-04-19T15:48:06;11.00;77.20
9820;DHT22;4949;48.482;9.206;2023-04-19T15:53:07;11.00;77.80
9820;DHT22;4949;48.482;9.206;2023-04-19T15:58:08;11.30;75.40
9820;DHT22;4949;48.482;9.206;2023-04-19T16:03:09;11.00;75.30
9820;DHT22;4949;48.482;9.206;2023-04-19T16:08:12;11.00;76.00
9820;DHT22;4949;48.482;9.206;2023-04-19T16:13:16;11.00;74.30
9820;DHT22;4949;48.482;9.206;2023-04-19T16:18:19;11.00;72.90
9820;DHT22;4949;48.482;9.206;2023-04-19T16:23:22;10.80;74.60
9820;DHT22;4949;48.482;9.206;2023-04-19T16:28:23;10.70;74.80
9820;DHT22;4949;48.482;9.206;2023-04-19T16:33:24;10.80;75.30
9820;DHT22;4949;48.482;9.206;2023-04-19T16:38:25;10.60;74.40
9820;DHT22;4949;48.482;9.206;2023-04-19T16:43:26;10.60;76.10
9820;DHT22;4949;48.482;9.206;2023-04-19T16:48:29;10.60;76.10
9820;DHT22;4949;48.482;9.206;2023-04-19T16:53:30;10.60;76.20
9820;DHT22;4949;48.482;9.206;2023-04-19T16:58:33;10.60;75.60
9820;DHT22;4949;48.482;9.206;2023-04-19T17:03:34;10.60;75.80
9820;DHT22;4949;48.482;9.206;2023-04-19T17:08:37;10.60;76.50
9820;DHT22;4949;48.482;9.206;2023-04-19T17:13:40;10.60;75.90
9820;DHT22;4949;48.482;9.206;2023-04-19T17:18:41;10.50;76.30
9820;DHT22;4949;48.482;9.206;2023-04-19T17:23:44;10.50;76.10
9820;DHT22;4949;48.482;9.206;2023-04-19T17:28:45;10.50;76.10
9820;DHT22;4949;48.482;9.206;2023-04-19T17:33:45;10.50;76.10
9820;DHT22;4949;48.482;9.206;2023-04-19T17:38:46;10.50;75.90
9820;DHT22;4949;48.482;9.206;2023-04-19T17:43:50;10.50;76.00
9820;DHT22;4949;48.482;9.206;2023-04-19T17:48:53;10.50;76.40
9820;DHT22;4949;48.482;9.206;2023-04-19T17:53:59;10.50;76.70
9820;DHT22;4949;48.482;9.206;2023-04-19T17:58:59;10.40;76.70
9820;DHT22;4949;48.482;9.206;2023-04-19T18:04:03;10.40;76.00
9820;DHT22;4949;48.482;9.206;2023-04-19T18:09:04;10.40;75.90
9820;DHT22;4949;48.482;9.206;2023-04-19T18:14:07;10.30;75.70
9820;DHT22;4949;48.482;9.206;2023-04-19T18:19:10;10.20;76.50
9820;DHT22;4949;48.482;9.206;2023-04-19T18:24:12;10.20;76.60
9820;DHT22;4949;48.482;9.206;2023-04-19T18:29:13;10.30;76.80
9820;DHT22;4949;48.482;9.206;2023-04-19T18:34:15;10.20;77.30
9820;DHT22;4949;48.482;9.206;2023-04-19T18:39:16;10.20;78.70
9820;DHT22;4949;48.482;9.206;2023-04-19T18:44:17;10.20;79.40
9820;DHT22;4949;48.482;9.206;2023-04-19T18:49:18;10.10;79.80
9820;DHT22;4949;48.482;9.206;2023-04-19T18:54:21;10.10;80.60
9820;DHT22;4949;48.482;9.206;2023-04-19T18:59:23;10.10;81.30
9820;DHT22;4949;48.482;9.206;2023-04-19T19:04:24;10.10;81.10
9820;DHT22;4949;48.482;9.206;2023-04-19T19:09:25;10.00;81.10
9820;DHT22;4949;48.482;9.206;2023-04-19T19:14:26;10.00;81.20
9820;DHT22;4949;48.482;9.206;2023-04-19T19:19:27;10.00;81.60
9820;DHT22;4949;48.482;9.206;2023-04-19T19:24:28;9.90;82.80
9820;DHT22;4949;48.482;9.206;2023-04-19T19:29:30;9.90;82.90
9820;DHT22;4949;48.482;9.206;2023-04-19T19:34:31;9.80;82.80
9820;DHT22;4949;48.482;9.206;2023-04-19T19:39:37;10.10;81.50
9820;DHT22;4949;48.482;9.206;2023-04-19T19:44:38;9.80;80.80
9820;DHT22;4949;48.482;9.206;2023-04-19T19:49:38;9.70;81.50
9820;DHT22;4949;48.482;9.206;2023-04-19T19:54:42;9.70;80.60
9820;DHT22;4949;48.482;9.206;2023-04-19T19:59:43;9.70;80.00
9820;DHT22;4949;48.482;9.206;2023-04-19T20:04:49;9.60;79.60
9820;DHT22;4949;48.482;9.206;2023-04-19T20:09:50;9.60;78.80
9820;DHT22;4949;48.482;9.206;2023-04-19T20:14:53;9.50;78.30
9820;DHT22;4949;48.482;9.206;2023-04-19T20:19:54;9.50;77.90
9820;DHT22;4949;48.482;9.206;2023-04-19T20:24:58;9.40;78.30
9820;DHT22;4949;48.482;9.206;2023-04-19T20:30:01;9.30;78.00
9820;DHT22;4949;48.482;9.206;2023-04-19T20:35:03;9.20;78.50
9820;DHT22;4949;48.482;9.206;2023-04-19T20:40:11;9.20;75.50
9820;DHT22;4949;48.482;9.206;2023-04-19T20:45:15;9.10;75.80
9820;DHT22;4949;48.482;9.206;2023-04-19T20:50:16;9.10;75.00
9820;DHT22;4949;48.482;9.206;2023-04-19T20:55:17;9.10;76.50
9820;DHT22;4949;48.482;9.206;2023-04-19T21:00:20;9.00;77.40
9820;DHT22;4949;48.482;9.206;2023-04-19T21:05:23;8.90;78.40
9820;DHT22;4949;48.482;9.206;2023-04-19T21:10:24;8.80;78.60
9820;DHT22;4949;48.482;9.206;2023-04-19T21:15:25;8.70;78.60
9820;DHT22;4949;48.482;9.206;2023-04-19T21:20:28;8.50;79.10
9820;DHT22;4949;48.482;9.206;2023-04-19T21:25:29;8.30;78.80
9820;DHT22;4949;48.482;9.206;2023-04-19T21:30:30;8.10;76.40
9820;DHT22;4949;48.482;9.206;2023-04-19T21:35:31;8.10;77.00
9820;DHT22;4949;48.482;9.206;2023-04-19T21:40:34;8.00;78.50
9820;DHT22;4949;48.482;9.206;2023-04-19T21:45:37;7.90;77.90
9820;DHT22;4949;48.482;9.206;2023-04-19T21:50:45;7.70;77.50
9820;DHT22;4949;48.482;9.206;2023-04-19T21:55:49;7.60;78.00
9820;DHT22;4949;48.482;9.206;2023-04-19T22:00:50;7.50;78.70
9820;DHT22;4949;48.482;9.206;2023-04-19T22:05:52;7.30;78.90
9820;DHT22;4949;48.482;9.206;2023-04-19T22:10:55;7.30;79.10
9820;DHT22;4949;48.482;9.206;2023-04-19T22:16:02;7.30;79.20
9820;DHT22;4949;48.482;9.206;2023-04-19T22:21:03;7.20;79.00
9820;DHT22;4949;48.482;9.206;2023-04-19T22:26:04;7.10;79.30
9820;DHT22;4949;48.482;9.206;2023-04-19T22:31:07;7.10;79.60
9820;DHT22;4949;48.482;9.206;2023-04-19T22:36:08;7.00;79.50
9820;DHT22;4949;48.482;9.206;2023-04-19T22:41:09;7.00;79.80
9820;DHT22;4949;48.482;9.206;2023-04-19T22:46:13;6.90;79.50
9820;DHT22;4949;48.482;9.206;2023-04-19T22:51:16;6.90;80.00
9820;DHT22;4949;48.482;9.206;2023-04-19T22:56:20;6.90;80.00
9820;DHT22;4949;48.482;9.206;2023-04-19T23:01:20;7.00;80.80
9820;DHT22;4949;48.482;9.206;2023-04-19T23:06:21;6.90;80.90
9820;DHT22;4949;48.482;9.206;2023-04-19T23:11:24;6.70;80.40
9820;DHT22;4949;48.482;9.206;2023-04-19T23:16:25;6.70;79.80
9820;DHT22;4949;48.482;9.206;2023-04-19T23:21:28;6.60;80.60
9820;DHT22;4949;48.482;9.206;2023-04-19T23:26:29;6.40;80.60
9820;DHT22;4949;48.482;9.206;2023-04-19T23:31:30;6.40;79.80
9820;DHT22;4949;48.482;9.206;2023-04-19T23:36:31;6.40;79.20
9820;DHT22;4949;48.482;9.206;2023-04-19T23:41:34;6.30;79.10
9820;DHT22;4949;48.482;9.206;2023-04-19T23:46:40;6.30;79.40
9820;DHT22;4949;48.482;9.206;2023-04-19T23:51:41;6.30;79.30
9820;DHT22;4949;48.482;9.206;2023-04-19T23:56:42;6.20;79.30
